Time;durP1;ratioP1;P1;durP2;ratioP2;P2;SDS_P1;SDS_P2;PMS_P1;PMS_P2;Temp;Humidity;BMP_temperature;BMP_pressure;BME280_temperature;BME280_humidity;BME280_pressure;Samples;Min_cycle;Max_cycle;Signal;HPM_P1;HPM_P2
2022/03/10 00:03:22;;;;;;;15.05;7.32;;;;;;;;;;8331474;28;20045;-79
2022/03/10 00:07:24;;;;;;;15.32;7.55;;;;;;;;;;8331224;28;20478;-78
2022/03/10 00:11:27;;;;;;;11.50;6.15;;;;;;;;;;8332184;28;20079;-78
2022/03/10 00:15:31;;;;;;;11.43;5.63;;;;;;;;;;8340641;28;20041;-78
2022/03/10 00:19:34;;;;;;;11.00;5.65;;;;;;;;;;8332563;28;20045;-79
2022/03/10 00:23:36;;;;;;;12.30;6.07;;;;;;;;;;8333068;28;20432;-77
2022/03/10 00:27:39;;;;;;;12.55;6.72;;;;;;;;;;8338606;28;20045;-78
2022/03/10 00:31:43;;;;;;;13.40;5.57;;;;;;;;;;8365734;28;20052;-77
2022/03/10 00:35:46;;;;;;;15.35;6.85;;;;;;;;;;8337315;28;20512;-77
2022/03/10 00:39:49;;;;;;;11.23;5.57;;;;;;;;;;8332510;28;20065;-81
2022/03/10 00:43:52;;;;;;;14.40;8.18;;;;;;;;;;8334322;28;20069;-81
2022/03/10 00:47:56;;;;;;;12.82;5.88;;;;;;;;;;8331421;28;20049;-80
2022/03/10 00:51:58;;;;;;;10.38;5.45;;;;;;;;;;8336257;28;20059;-78
2022/03/10 00:56:01;;;;;;;11.50;6.97;;;;;;;;;;8362136;28;20041;-80
2022/03/10 01:00:06;;;;;;;12.32;6.78;;;;;;;;;;8364770;28;20045;-78
2022/03/10 01:04:10;;;;;;;14.32;7.25;;;;;;;;;;8360693;28;20045;-78
2022/03/10 01:08:13;;;;;;;14.80;7.28;;;;;;;;;;8331863;28;20056;-78
2022/03/10 01:12:16;;;;;;;24.85;10.68;;;;;;;;;;8347103;28;20461;-80
2022/03/10 01:16:18;;;;;;;12.50;7.55;;;;;;;;;;8354211;28;20488;-79
2022/03/10 01:20:24;;;;;;;16.45;7.68;;;;;;;;;;8337936;28;20455;-78
2022/03/10 01:24:28;;;;;;;14.88;8.07;;;;;;;;;;8362204;28;20044;-78
2022/03/10 01:28:30;;;;;;;14.80;8.18;;;;;;;;;;8338369;28;20053;-79
2022/03/10 01:32:34;;;;;;;18.65;8.45;;;;;;;;;;8346914;28;20063;-79
2022/03/10 01:36:38;;;;;;;14.40;8.50;;;;;;;;;;8353071;28;20485;-78
2022/03/10 01:40:40;;;;;;;15.10;7.93;;;;;;;;;;8363365;28;20041;-78
2022/03/10 01:44:43;;;;;;;13.77;7.90;;;;;;;;;;8337246;28;20048;-78
2022/03/10 01:48:45;;;;;;;17.83;7.80;;;;;;;;;;8332157;28;20056;-79
2022/03/10 01:52:49;;;;;;;19.73;8.50;;;;;;;;;;8351686;28;20049;-78
2022/03/10 01:56:53;;;;;;;15.50;8.25;;;;;;;;;;8355312;28;20045;-77
2022/03/10 02:00:56;;;;;;;15.93;8.50;;;;;;;;;;8344801;28;20060;-78
2022/03/10 02:04:59;;;;;;;15.00;7.97;;;;;;;;;;8348326;28;20090;-78
2022/03/10 02:13:23;;;;;;;15.77;7.90;;;;;;;;;;8307697;28;20049;-78
2022/03/10 02:17:25;;;;;;;17.33;9.27;;;;;;;;;;8344670;28;20041;-80
2022/03/10 02:21:27;;;;;;;18.57;8.40;;;;;;;;;;8351773;28;20087;-79
2022/03/10 02:25:32;;;;;;;26.52;11.00;;;;;;;;;;8332066;28;20050;-79
2022/03/10 02:29:35;;;;;;;37.83;13.52;;;;;;;;;;8358651;28;20053;-79
2022/03/10 02:33:38;;;;;;;26.50;10.98;;;;;;;;;;8353073;28;20060;-79
2022/03/10 02:37:41;;;;;;;20.30;10.52;;;;;;;;;;8345405;28;20111;-79
2022/03/10 02:41:45;;;;;;;28.30;11.68;;;;;;;;;;8350882;28;20049;-79
2022/03/10 02:45:48;;;;;;;22.17;9.88;;;;;;;;;;8348546;28;20052;-79
2022/03/10 02:49:51;;;;;;;18.98;8.52;;;;;;;;;;8355920;28;20171;-77
2022/03/10 02:53:53;;;;;;;17.50;7.65;;;;;;;;;;8335778;28;20061;-78
2022/03/10 02:57:57;;;;;;;21.10;9.38;;;;;;;;;;8351762;28;20046;-77
2022/03/10 03:02:00;;;;;;;18.77;8.60;;;;;;;;;;8335844;28;20072;-78
2022/03/10 03:06:02;;;;;;;20.92;8.77;;;;;;;;;;8350676;28;20071;-77
2022/03/10 03:10:06;;;;;;;18.73;7.78;;;;;;;;;;8343122;28;20072;-78
2022/03/10 03:14:10;;;;;;;20.23;9.02;;;;;;;;;;8341413;28;20037;-77
2022/03/10 03:18:12;;;;;;;15.25;7.70;;;;;;;;;;8350546;28;20060;-78
2022/03/10 03:22:15;;;;;;;20.50;10.00;;;;;;;;;;8367474;28;20378;-77
2022/03/10 03:26:17;;;;;;;18.38;9.50;;;;;;;;;;8367093;28;20538;-77
2022/03/10 03:30:21;;;;;;;17.80;7.47;;;;;;;;;;8367500;28;20056;-77
2022/03/10 03:34:24;;;;;;;17.42;6.95;;;;;;;;;;8333219;28;20490;-78
2022/03/10 03:38:27;;;;;;;19.20;8.18;;;;;;;;;;8352905;28;20060;-78
2022/03/10 03:42:34;;;;;;;19.05;7.75;;;;;;;;;;8334469;28;20042;-76
2022/03/10 03:46:39;;;;;;;20.30;8.73;;;;;;;;;;8337968;28;20054;-76
2022/03/10 03:50:41;;;;;;;23.95;9.90;;;;;;;;;;8364275;28;20063;-78
2022/03/10 03:54:44;;;;;;;18.33;9.45;;;;;;;;;;8346776;28;20048;-78
2022/03/10 03:58:46;;;;;;;22.88;8.52;;;;;;;;;;8358828;28;20036;-77
2022/03/10 04:02:50;;;;;;;19.85;8.77;;;;;;;;;;8365044;28;20041;-77
2022/03/10 04:06:53;;;;;;;20.98;8.35;;;;;;;;;;8335565;28;20057;-78
2022/03/10 04:10:55;;;;;;;21.52;8.18;;;;;;;;;;8333643;28;20045;-78
2022/03/10 04:14:59;;;;;;;22.02;10.00;;;;;;;;;;8336268;28;20045;-78
2022/03/10 04:19:03;;;;;;;16.52;8.77;;;;;;;;;;8363006;28;20056;-77
2022/03/10 04:23:05;;;;;;;21.80;9.57;;;;;;;;;;8343336;28;20054;-78
2022/03/10 04:27:08;;;;;;;22.50;12.02;;;;;;;;;;8358801;28;20045;-78
2022/03/10 04:31:10;;;;;;;19.85;10.27;;;;;;;;;;8364622;28;20072;-79
2022/03/10 04:35:16;;;;;;;22.27;8.40;;;;;;;;;;8281380;28;20054;-78
2022/03/10 04:39:18;;;;;;;20.25;8.40;;;;;;;;;;8292225;28;20053;-78
2022/03/10 04:43:21;;;;;;;16.08;8.10;;;;;;;;;;8268358;28;20042;-77
2022/03/10 04:47:23;;;;;;;16.75;8.63;;;;;;;;;;8283436;28;20050;-77
2022/03/10 04:51:28;;;;;;;21.60;8.77;;;;;;;;;;8298924;28;20042;-77
2022/03/10 04:55:30;;;;;;;19.70;9.43;;;;;;;;;;8278410;28;20050;-77
2022/03/10 04:59:33;;;;;;;25.60;11.07;;;;;;;;;;8270696;28;20374;-77
2022/03/10 05:03:35;;;;;;;24.83;11.38;;;;;;;;;;8278363;28;20054;-77
2022/03/10 05:07:40;;;;;;;37.47;15.38;;;;;;;;;;8284059;28;20052;-77
2022/03/10 05:11:42;;;;;;;42.28;19.55;;;;;;;;;;8270089;28;20048;-77
2022/03/10 05:15:45;;;;;;;37.20;16.55;;;;;;;;;;8264916;28;20050;-77
2022/03/10 05:19:47;;;;;;;30.13;12.95;;;;;;;;;;8266429;28;20550;-77
2022/03/10 05:23:52;;;;;;;19.50;9.30;;;;;;;;;;8274627;28;20042;-77
2022/03/10 05:27:54;;;;;;;35.78;13.32;;;;;;;;;;8268666;28;20104;-77
2022/03/10 05:31:57;;;;;;;212.02;87.18;;;;;;;;;;8287090;28;20478;-77
2022/03/10 05:35:59;;;;;;;33.25;15.82;;;;;;;;;;8290639;28;20093;-77
2022/03/10 05:40:05;;;;;;;36.10;15.50;;;;;;;;;;8293653;28;20041;-78
2022/03/10 05:44:08;;;;;;;23.05;9.70;;;;;;;;;;8298881;28;20406;-78
2022/03/10 05:48:11;;;;;;;20.13;8.93;;;;;;;;;;8305499;28;20050;-78
2022/03/10 05:52:15;;;;;;;23.90;10.35;;;;;;;;;;8312325;28;20052;-78
2022/03/10 05:56:23;;;;;;;20.90;8.93;;;;;;;;;;8322476;28;20048;-78
2022/03/10 06:00:28;;;;;;;21.80;10.15;;;;;;;;;;8314485;28;20065;-79
2022/03/10 06:04:33;;;;;;;36.03;16.98;;;;;;;;;;8313498;28;20426;-79
2022/03/10 06:08:40;;;;;;;16.95;9.32;;;;;;;;;;8285483;28;20086;-79
2022/03/10 06:12:49;;;;;;;26.05;10.15;;;;;;;;;;8297359;28;20432;-77
2022/03/10 06:16:56;;;;;;;18.58;9.80;;;;;;;;;;8297469;28;20045;-79
2022/03/10 06:21:04;;;;;;;20.85;9.82;;;;;;;;;;8296339;28;20041;-79
2022/03/10 06:25:09;;;;;;;21.80;11.43;;;;;;;;;;8283923;28;20415;-80
2022/03/10 06:29:15;;;;;;;15.80;6.40;;;;;;;;;;8300184;28;20053;-79
2022/03/10 06:33:19;;;;;;;17.98;10.02;;;;;;;;;;8300278;28;20058;-79
2022/03/10 06:37:23;;;;;;;22.73;12.50;;;;;;;;;;8279611;28;20164;-78
2022/03/10 06:41:27;;;;;;;15.07;7.03;;;;;;;;;;8301357;28;20414;-80
2022/03/10 06:45:35;;;;;;;18.50;9.73;;;;;;;;;;8303033;28;20486;-76
2022/03/10 06:49:39;;;;;;;15.15;7.00;;;;;;;;;;8302670;28;20081;-78
2022/03/10 06:53:42;;;;;;;11.82;6.78;;;;;;;;;;8301625;28;20388;-78
2022/03/10 06:57:44;;;;;;;13.88;8.20;;;;;;;;;;8300772;28;20461;-77
2022/03/10 07:01:48;;;;;;;18.13;8.80;;;;;;;;;;8300375;28;20489;-78
2022/03/10 07:05:51;;;;;;;13.63;7.93;;;;;;;;;;8301807;28;20069;-78
2022/03/10 07:09:54;;;;;;;17.05;9.98;;;;;;;;;;8301745;28;20054;-77
2022/03/10 07:13:57;;;;;;;11.68;7.15;;;;;;;;;;8302313;28;20197;-79
2022/03/10 07:18:02;;;;;;;12.48;6.38;;;;;;;;;;8301360;28;20050;-80
2022/03/10 07:22:05;;;;;;;8.63;5.78;;;;;;;;;;8298557;28;20096;-85
2022/03/10 07:26:09;;;;;;;13.95;7.50;;;;;;;;;;8297015;28;20497;-79
2022/03/10 07:30:12;;;;;;;14.85;7.60;;;;;;;;;;8298972;28;20104;-84
2022/03/10 07:34:17;;;;;;;8.68;5.22;;;;;;;;;;8296827;28;20049;-87
2022/03/10 07:38:21;;;;;;;11.48;5.95;;;;;;;;;;8297872;28;20046;-87
2022/03/10 07:42:26;;;;;;;9.80;4.60;;;;;;;;;;8301169;28;20046;-87
2022/03/10 07:46:36;;;;;;;10.60;5.45;;;;;;;;;;8301117;28;20073;-88
2022/03/10 07:50:44;;;;;;;9.45;5.43;;;;;;;;;;8300833;28;20045;-87
2022/03/10 07:54:48;;;;;;;9.10;5.50;;;;;;;;;;8297209;28;20049;-86
2022/03/10 07:58:51;;;;;;;15.45;8.95;;;;;;;;;;8295899;28;20525;-82
2022/03/10 08:02:55;;;;;;;7.72;4.57;;;;;;;;;;8297124;28;20054;-85
2022/03/10 08:07:00;;;;;;;12.88;6.88;;;;;;;;;;8298257;28;20482;-82
2022/03/10 08:11:06;;;;;;;13.35;7.82;;;;;;;;;;8288467;28;20046;-82
2022/03/10 08:15:11;;;;;;;17.48;9.23;;;;;;;;;;8296934;28;20108;-82
2022/03/10 08:19:14;;;;;;;21.23;8.52;;;;;;;;;;8298448;28;20405;-81
2022/03/10 08:23:19;;;;;;;12.25;6.13;;;;;;;;;;8299302;28;20096;-82
2022/03/10 08:27:23;;;;;;;11.40;5.20;;;;;;;;;;8297835;28;20061;-82
2022/03/10 08:31:26;;;;;;;12.38;5.75;;;;;;;;;;8300256;28;20537;-82
2022/03/10 08:35:30;;;;;;;28.88;12.05;;;;;;;;;;8299339;28;20053;-83
2022/03/10 08:39:36;;;;;;;25.98;9.35;;;;;;;;;;8299526;28;20054;-82
2022/03/10 08:43:40;;;;;;;10.48;5.07;;;;;;;;;;8299470;28;20045;-83
2022/03/10 08:47:49;;;;;;;17.48;6.13;;;;;;;;;;8298898;28;20050;-82
2022/03/10 08:51:52;;;;;;;12.13;5.88;;;;;;;;;;8299471;28;20088;-81
2022/03/10 08:55:57;;;;;;;13.15;6.57;;;;;;;;;;8298913;28;20053;-81
2022/03/10 09:00:00;;;;;;;6.65;3.83;;;;;;;;;;8298712;28;20476;-82
2022/03/10 09:04:03;;;;;;;21.90;7.60;;;;;;;;;;8321497;28;20050;-82
2022/03/10 09:08:06;;;;;;;20.25;8.77;;;;;;;;;;8298247;28;20149;-82
2022/03/10 09:12:12;;;;;;;30.55;10.15;;;;;;;;;;8331312;28;20047;-82
2022/03/10 09:16:15;;;;;;;12.18;5.75;;;;;;;;;;8330909;28;20124;-81
2022/03/10 09:20:18;;;;;;;11.38;5.90;;;;;;;;;;8330721;28;20045;-82
2022/03/10 09:24:21;;;;;;;14.20;7.72;;;;;;;;;;8298331;28;20076;-82
2022/03/10 09:28:26;;;;;;;9.82;5.88;;;;;;;;;;8298198;28;20042;-82
2022/03/10 09:32:35;;;;;;;7.50;4.28;;;;;;;;;;8297944;28;20050;-82
2022/03/10 09:36:40;;;;;;;15.68;6.25;;;;;;;;;;8297627;28;20046;-81
2022/03/10 09:40:43;;;;;;;7.68;5.10;;;;;;;;;;8309121;28;20045;-81
2022/03/10 09:44:53;;;;;;;16.45;8.23;;;;;;;;;;8320733;28;20053;-82
2022/03/10 09:48:58;;;;;;;6.75;4.20;;;;;;;;;;8328837;28;20076;-80
2022/03/10 09:53:05;;;;;;;11.23;5.65;;;;;;;;;;8297504;28;20042;-80
2022/03/10 09:57:11;;;;;;;8.90;4.68;;;;;;;;;;8296855;28;20050;-80
2022/03/10 10:01:19;;;;;;;9.35;3.90;;;;;;;;;;8297457;28;20379;-80
2022/03/10 10:05:25;;;;;;;8.65;4.53;;;;;;;;;;8297416;28;20125;-80
2022/03/10 10:09:42;;;;;;;7.10;3.80;;;;;;;;;;8286465;28;20038;-80
2022/03/10 10:13:51;;;;;;;10.93;5.53;;;;;;;;;;8294075;28;20133;-80
2022/03/10 10:18:03;;;;;;;6.47;3.58;;;;;;;;;;8293859;28;20506;-80
2022/03/10 10:22:14;;;;;;;10.32;4.40;;;;;;;;;;8293071;28;20038;-81
2022/03/10 10:26:26;;;;;;;7.35;4.35;;;;;;;;;;8292932;28;20057;-81
2022/03/10 10:30:33;;;;;;;9.43;4.78;;;;;;;;;;8291138;28;20482;-80
2022/03/10 10:34:42;;;;;;;7.40;3.95;;;;;;;;;;8293999;28;20196;-81
2022/03/10 10:38:50;;;;;;;6.82;4.00;;;;;;;;;;8296772;28;20053;-79
2022/03/10 10:42:57;;;;;;;10.15;4.82;;;;;;;;;;8296125;28;20042;-80
2022/03/10 10:47:00;;;;;;;7.25;4.18;;;;;;;;;;8289820;28;20566;-80
2022/03/10 10:51:14;;;;;;;10.18;5.18;;;;;;;;;;8283525;28;20124;-80
2022/03/10 10:55:21;;;;;;;8.85;4.80;;;;;;;;;;8288241;28;20077;-79
2022/03/10 10:59:34;;;;;;;10.02;5.28;;;;;;;;;;8291827;28;20046;-81
2022/03/10 11:03:40;;;;;;;9.88;4.55;;;;;;;;;;8293502;28;20474;-80
2022/03/10 11:07:45;;;;;;;9.93;5.20;;;;;;;;;;8295641;28;20038;-81
2022/03/10 11:11:51;;;;;;;13.15;6.15;;;;;;;;;;8283402;28;20057;-81
2022/03/10 11:15:58;;;;;;;8.32;4.82;;;;;;;;;;8297384;28;20399;-81
2022/03/10 11:20:10;;;;;;;9.57;5.20;;;;;;;;;;8301311;28;20080;-80
2022/03/10 11:24:43;;;;;;;13.13;7.47;;;;;;;;;;8301107;28;20046;-78
2022/03/10 11:28:54;;;;;;;10.75;6.00;;;;;;;;;;8301868;28;20052;-80
2022/03/10 11:33:06;;;;;;;14.52;6.50;;;;;;;;;;8301329;28;20065;-79
2022/03/10 11:37:11;;;;;;;8.98;5.20;;;;;;;;;;8309470;28;20470;-80
2022/03/10 11:41:18;;;;;;;13.05;5.72;;;;;;;;;;8334780;28;20049;-81
2022/03/10 11:45:27;;;;;;;8.73;4.88;;;;;;;;;;8323506;28;20046;-81
2022/03/10 11:49:48;;;;;;;12.93;7.22;;;;;;;;;;8299496;28;20401;-78
2022/03/10 11:54:07;;;;;;;8.60;4.05;;;;;;;;;;8300336;28;20409;-81
2022/03/10 11:58:13;;;;;;;10.85;5.45;;;;;;;;;;8300307;28;20078;-81
2022/03/10 12:02:43;;;;;;;9.20;4.53;;;;;;;;;;8297881;28;20553;-80
2022/03/10 12:06:57;;;;;;;8.48;4.25;;;;;;;;;;8292220;28;20104;-81
2022/03/10 12:11:02;;;;;;;8.50;4.45;;;;;;;;;;8300513;28;20057;-80
2022/03/10 12:15:50;;;;;;;11.02;5.20;;;;;;;;;;8296976;28;20145;-81
2022/03/10 12:20:14;;;;;;;10.02;5.18;;;;;;;;;;8297087;28;20057;-81
2022/03/10 12:24:35;;;;;;;6.68;3.85;;;;;;;;;;8300106;28;20128;-81
2022/03/10 12:28:42;;;;;;;8.13;4.20;;;;;;;;;;8299816;28;20136;-81
2022/03/10 12:32:46;;;;;;;7.53;4.75;;;;;;;;;;8299629;28;20057;-81
2022/03/10 12:36:57;;;;;;;5.50;3.67;;;;;;;;;;8299375;28;20046;-81
2022/03/10 12:41:02;;;;;;;7.40;4.18;;;;;;;;;;8299815;28;20128;-82
2022/03/10 12:45:06;;;;;;;9.02;4.07;;;;;;;;;;8298865;28;20046;-81
2022/03/10 12:49:20;;;;;;;8.85;4.78;;;;;;;;;;8294627;28;20449;-79
2022/03/10 12:53:36;;;;;;;6.68;3.92;;;;;;;;;;8299503;28;20383;-81
2022/03/10 12:57:45;;;;;;;30.77;13.88;;;;;;;;;;8299046;28;20042;-82
2022/03/10 13:01:52;;;;;;;11.23;6.40;;;;;;;;;;8290620;28;20045;-81
2022/03/10 13:06:00;;;;;;;12.35;4.30;;;;;;;;;;8297068;28;20066;-81
2022/03/10 13:10:11;;;;;;;8.05;5.05;;;;;;;;;;8294719;28;20490;-77
2022/03/10 13:14:22;;;;;;;7.32;3.65;;;;;;;;;;8284926;28;20389;-80
2022/03/10 13:18:43;;;;;;;10.55;4.80;;;;;;;;;;8295351;28;20072;-79
2022/03/10 13:22:58;;;;;;;12.93;6.15;;;;;;;;;;8294996;28;20104;-78
2022/03/10 13:27:10;;;;;;;13.57;5.72;;;;;;;;;;8292963;28;20070;-79
2022/03/10 13:31:20;;;;;;;21.25;8.70;;;;;;;;;;8293557;28;20046;-79
2022/03/10 13:35:34;;;;;;;10.02;5.57;;;;;;;;;;8294880;28;20073;-80
2022/03/10 13:39:47;;;;;;;29.30;12.85;;;;;;;;;;8293934;28;20038;-81
2022/03/10 13:44:42;;;;;;;16.33;7.28;;;;;;;;;;8294275;28;20076;-80
2022/03/10 13:49:31;;;;;;;11.00;5.38;;;;;;;;;;8292674;28;20041;-81
2022/03/10 13:53:37;;;;;;;12.70;5.30;;;;;;;;;;8291196;28;20052;-80
2022/03/10 13:57:44;;;;;;;45.78;15.43;;;;;;;;;;8295788;28;20046;-80
2022/03/10 14:01:53;;;;;;;10.77;5.50;;;;;;;;;;8296489;28;20046;-80
2022/03/10 14:06:15;;;;;;;40.03;13.05;;;;;;;;;;8295532;28;20101;-81
2022/03/10 14:10:29;;;;;;;14.93;7.68;;;;;;;;;;8291326;28;20053;-80
2022/03/10 14:14:34;;;;;;;17.75;7.03;;;;;;;;;;8279625;28;20045;-80
2022/03/10 14:18:45;;;;;;;45.58;14.13;;;;;;;;;;8296552;28;20105;-80
2022/03/10 14:22:48;;;;;;;19.88;7.72;;;;;;;;;;8296703;28;20068;-79
2022/03/10 14:26:52;;;;;;;11.43;5.03;;;;;;;;;;8288882;28;20043;-77
2022/03/10 14:30:55;;;;;;;11.02;4.65;;;;;;;;;;8270998;28;20490;-77
2022/03/10 14:35:10;;;;;;;11.73;5.28;;;;;;;;;;8275439;28;20058;-77
2022/03/10 14:39:23;;;;;;;12.15;6.25;;;;;;;;;;8286244;28;20038;-76
2022/03/10 14:43:32;;;;;;;10.07;4.78;;;;;;;;;;8298831;28;20057;-76
2022/03/10 14:47:35;;;;;;;48.58;13.63;;;;;;;;;;8303631;28;20479;-77
2022/03/10 14:51:40;;;;;;;36.53;13.13;;;;;;;;;;8302474;28;20057;-77
2022/03/10 14:55:43;;;;;;;69.30;18.38;;;;;;;;;;8302611;28;20052;-77
2022/03/10 14:59:47;;;;;;;37.97;14.90;;;;;;;;;;8302730;28;20045;-76
2022/03/10 15:03:52;;;;;;;9.60;4.75;;;;;;;;;;8301584;28;20076;-76
2022/03/10 15:08:01;;;;;;;18.25;8.07;;;;;;;;;;8301743;28;20050;-76
2022/03/10 15:12:05;;;;;;;40.42;12.85;;;;;;;;;;8302528;28;20041;-77
2022/03/10 15:16:11;;;;;;;17.42;8.45;;;;;;;;;;8301940;28;20474;-77
2022/03/10 15:20:16;;;;;;;25.98;12.65;;;;;;;;;;8302687;28;20057;-77
2022/03/10 15:24:24;;;;;;;15.73;7.13;;;;;;;;;;8301919;28;20038;-77
2022/03/10 15:28:27;;;;;;;22.80;11.98;;;;;;;;;;8301795;28;20050;-77
2022/03/10 15:32:32;;;;;;;19.45;10.88;;;;;;;;;;8298863;28;20406;-76
2022/03/10 15:36:36;;;;;;;13.02;7.25;;;;;;;;;;8298912;28;20452;-76
2022/03/10 15:41:03;;;;;;;29.70;14.02;;;;;;;;;;8268832;28;20043;-77
2022/03/10 15:45:21;;;;;;;30.58;14.43;;;;;;;;;;8270080;28;20061;-77
2022/03/10 15:49:56;;;;;;;123.93;47.17;;;;;;;;;;8276926;28;20042;-79
2022/03/10 15:59:09;;;;;;;192.30;72.72;;;;;;;;;;8286854;28;20049;-82
2022/03/10 16:03:44;;;;;;;136.25;53.33;;;;;;;;;;8256844;28;20502;-82
2022/03/10 16:08:02;;;;;;;;;;;;;;;;;;8280773;28;20038;-82
2022/03/10 16:12:11;;;;;;;34.05;15.02;;;;;;;;;;8249844;28;19928;-83
2022/03/10 16:16:19;;;;;;;105.72;38.60;;;;;;;;;;8245935;28;20483;-83
2022/03/10 16:20:23;;;;;;;65.13;28.00;;;;;;;;;;8242129;28;20050;-83
2022/03/10 16:24:52;;;;;;;57.22;20.75;;;;;;;;;;8255654;28;20042;-84
2022/03/10 16:29:44;;;;;;;60.13;19.08;;;;;;;;;;8266009;28;20474;-83
2022/03/10 16:33:58;;;;;;;433.33;122.05;;;;;;;;;;8280785;28;20079;-83
2022/03/10 16:38:03;;;;;;;428.42;126.70;;;;;;;;;;8299354;28;20050;-83
2022/03/10 16:42:15;;;;;;;226.68;68.45;;;;;;;;;;8299345;28;20548;-83
2022/03/10 16:46:23;;;;;;;338.38;96.50;;;;;;;;;;8299483;28;20121;-83
2022/03/10 16:50:31;;;;;;;61.13;19.45;;;;;;;;;;8282053;28;20044;-83
2022/03/10 16:54:36;;;;;;;141.05;39.05;;;;;;;;;;8298979;28;20050;-83
2022/03/10 16:58:42;;;;;;;59.08;19.65;;;;;;;;;;8287145;28;20050;-84
2022/03/10 17:02:57;;;;;;;132.27;30.30;;;;;;;;;;8264491;28;20142;-83
2022/03/10 17:07:06;;;;;;;196.20;52.70;;;;;;;;;;8298326;28;20502;-83
2022/03/10 17:11:09;;;;;;;253.25;67.07;;;;;;;;;;8298624;28;20068;-84
2022/03/10 17:15:14;;;;;;;83.38;23.23;;;;;;;;;;8298623;28;20054;-83
2022/03/10 17:19:18;;;;;;;65.50;20.35;;;;;;;;;;8298507;28;20049;-83
2022/03/10 17:23:29;;;;;;;186.15;59.40;;;;;;;;;;8298033;28;20046;-83
2022/03/10 17:27:33;;;;;;;39.58;16.35;;;;;;;;;;8298344;28;20056;-83
2022/03/10 17:31:42;;;;;;;22.40;10.13;;;;;;;;;;8299642;28;20726;-83
2022/03/10 17:35:53;;;;;;;34.70;16.17;;;;;;;;;;8278834;28;20109;-83
2022/03/10 17:40:15;;;;;;;33.72;14.95;;;;;;;;;;8271682;28;20038;-84
2022/03/10 17:44:20;;;;;;;17.55;9.55;;;;;;;;;;8275046;28;20482;-83
2022/03/10 17:48:23;;;;;;;26.45;13.25;;;;;;;;;;8276483;28;20050;-83
2022/03/10 17:52:27;;;;;;;435.33;113.63;;;;;;;;;;8266123;28;20450;-83
2022/03/10 17:56:32;;;;;;;73.35;19.85;;;;;;;;;;8220478;28;20077;-83
2022/03/10 18:00:39;;;;;;;37.30;13.18;;;;;;;;;;8264153;28;20046;-83
2022/03/10 18:04:47;;;;;;;51.25;13.75;;;;;;;;;;8263564;28;20042;-83
2022/03/10 18:08:51;;;;;;;33.22;10.45;;;;;;;;;;8263762;28;20136;-82
2022/03/10 18:12:58;;;;;;;21.67;8.93;;;;;;;;;;8263395;28;20181;-82
2022/03/10 18:17:02;;;;;;;31.20;13.82;;;;;;;;;;8274046;28;20053;-84
2022/03/10 18:21:11;;;;;;;23.65;9.05;;;;;;;;;;8272385;28;20087;-83
2022/03/10 18:25:16;;;;;;;72.22;20.70;;;;;;;;;;8251869;28;20042;-83
2022/03/10 18:29:22;;;;;;;18.67;8.13;;;;;;;;;;8269372;28;20043;-83
2022/03/10 18:33:26;;;;;;;27.08;10.75;;;;;;;;;;8274835;28;20084;-84
2022/03/10 18:37:32;;;;;;;86.13;19.85;;;;;;;;;;8279842;28;20049;-83
2022/03/10 18:41:38;;;;;;;42.00;13.23;;;;;;;;;;8300541;28;20104;-83
2022/03/10 18:45:52;;;;;;;126.50;31.27;;;;;;;;;;8307097;28;20544;-83
2022/03/10 18:49:57;;;;;;;81.45;26.77;;;;;;;;;;8335428;28;20045;-83
2022/03/10 18:54:04;;;;;;;85.80;31.55;;;;;;;;;;8308019;28;20385;-83
2022/03/10 18:58:18;;;;;;;30.70;12.27;;;;;;;;;;8323959;28;20077;-84
2022/03/10 19:02:28;;;;;;;27.10;13.15;;;;;;;;;;8309692;28;20045;-84
2022/03/10 19:06:33;;;;;;;28.25;13.38;;;;;;;;;;8300682;28;20048;-85
2022/03/10 19:10:41;;;;;;;27.23;11.27;;;;;;;;;;8310029;28;20046;-81
2022/03/10 19:14:47;;;;;;;43.78;16.15;;;;;;;;;;8302318;28;20082;-83
2022/03/10 19:19:01;;;;;;;17.95;7.47;;;;;;;;;;8321492;28;20136;-82
2022/03/10 19:23:09;;;;;;;24.50;11.75;;;;;;;;;;8334744;28;20075;-84
2022/03/10 19:27:19;;;;;;;22.35;9.45;;;;;;;;;;8311146;28;20084;-83
2022/03/10 19:31:24;;;;;;;158.45;44.00;;;;;;;;;;8300089;28;20046;-82
2022/03/10 19:35:38;;;;;;;15.80;7.45;;;;;;;;;;8301348;28;20081;-81
2022/03/10 19:39:48;;;;;;;43.25;13.30;;;;;;;;;;8286041;28;20045;-79
2022/03/10 19:44:00;;;;;;;18.98;8.07;;;;;;;;;;8296889;28;20477;-85
2022/03/10 19:48:12;;;;;;;34.42;12.90;;;;;;;;;;8296118;28;20084;-84
2022/03/10 19:52:22;;;;;;;9.00;5.25;;;;;;;;;;8297804;28;20046;-87
2022/03/10 19:56:27;;;;;;;33.22;11.18;;;;;;;;;;8311821;28;20050;-86
2022/03/10 20:00:33;;;;;;;23.83;7.13;;;;;;;;;;8295291;28;20449;-83
2022/03/10 20:04:36;;;;;;;150.52;27.30;;;;;;;;;;8297932;28;20173;-84
2022/03/10 20:08:54;;;;;;;199.55;40.08;;;;;;;;;;8297870;28;20069;-82
2022/03/10 20:12:57;;;;;;;147.38;36.38;;;;;;;;;;8302793;28;20076;-82
2022/03/10 20:17:01;;;;;;;128.23;26.98;;;;;;;;;;8300365;28;20038;-83
2022/03/10 20:21:04;;;;;;;372.88;59.67;;;;;;;;;;8301707;28;20056;-82
2022/03/10 20:25:09;;;;;;;282.38;45.83;;;;;;;;;;8302692;28;20532;-81
2022/03/10 20:29:13;;;;;;;76.85;25.23;;;;;;;;;;8299272;28;20046;-82
2022/03/10 20:33:16;;;;;;;26.38;11.02;;;;;;;;;;8294511;28;20133;-82
2022/03/10 20:37:27;;;;;;;115.97;22.15;;;;;;;;;;8266285;28;20073;-83
2022/03/10 20:41:34;;;;;;;190.77;36.13;;;;;;;;;;8265642;28;20054;-82
2022/03/10 20:45:38;;;;;;;133.88;29.48;;;;;;;;;;8265284;28;20381;-83
2022/03/10 20:49:43;;;;;;;59.38;15.52;;;;;;;;;;8265708;28;20038;-83
2022/03/10 20:53:47;;;;;;;85.15;19.92;;;;;;;;;;8265978;28;20097;-82
2022/03/10 20:57:56;;;;;;;14.65;4.82;;;;;;;;;;8266653;28;20046;-82
2022/03/10 21:02:01;;;;;;;64.55;19.08;;;;;;;;;;8265607;28;20053;-85
2022/03/10 21:06:05;;;;;;;83.72;18.10;;;;;;;;;;8266520;28;20049;-81
2022/03/10 21:10:10;;;;;;;44.25;12.32;;;;;;;;;;8265359;28;20053;-82
2022/03/10 21:14:14;;;;;;;49.35;16.70;;;;;;;;;;8265429;28;20129;-82
2022/03/10 21:18:16;;;;;;;15.75;5.25;;;;;;;;;;8266336;28;20078;-81
2022/03/10 21:22:19;;;;;;;20.08;7.18;;;;;;;;;;8265649;28;20128;-82
2022/03/10 21:26:22;;;;;;;13.32;6.15;;;;;;;;;;8265959;28;20128;-82
2022/03/10 21:30:26;;;;;;;13.25;5.97;;;;;;;;;;8265877;28;20046;-81
2022/03/10 21:34:28;;;;;;;46.65;14.30;;;;;;;;;;8284510;28;20062;-82
2022/03/10 21:38:31;;;;;;;15.57;7.13;;;;;;;;;;8297872;28;20065;-82
2022/03/10 21:42:34;;;;;;;13.88;5.10;;;;;;;;;;8297030;28;20042;-82
2022/03/10 21:46:41;;;;;;;14.73;5.50;;;;;;;;;;8297995;28;20049;-82
2022/03/10 21:50:45;;;;;;;10.23;4.35;;;;;;;;;;8298024;28;20057;-81
2022/03/10 21:54:50;;;;;;;9.13;4.15;;;;;;;;;;8298053;28;20046;-81
2022/03/10 21:58:53;;;;;;;9.70;3.88;;;;;;;;;;8297945;28;20053;-83
2022/03/10 22:02:57;;;;;;;14.13;5.78;;;;;;;;;;8298035;28;20461;-82
2022/03/10 22:07:00;;;;;;;11.25;5.22;;;;;;;;;;8297604;28;20068;-81
2022/03/10 22:11:02;;;;;;;10.82;5.13;;;;;;;;;;8297764;28;20046;-82
2022/03/10 22:15:06;;;;;;;39.08;11.00;;;;;;;;;;8297678;28;20101;-82
2022/03/10 22:19:11;;;;;;;18.30;7.05;;;;;;;;;;8297587;28;20049;-82
2022/03/10 22:23:13;;;;;;;22.40;8.43;;;;;;;;;;8296177;28;20052;-83
2022/03/10 22:27:16;;;;;;;44.35;14.27;;;;;;;;;;8298120;28;20057;-83
2022/03/10 22:31:18;;;;;;;37.25;11.70;;;;;;;;;;8297835;28;20498;-84
2022/03/10 22:35:22;;;;;;;30.38;12.27;;;;;;;;;;8297259;28;20068;-84
2022/03/10 22:39:25;;;;;;;47.53;13.52;;;;;;;;;;8297541;28;20077;-82
2022/03/10 22:43:28;;;;;;;27.05;10.23;;;;;;;;;;8297102;28;20050;-80
2022/03/10 22:47:31;;;;;;;23.75;8.95;;;;;;;;;;8297211;28;20069;-81
2022/03/10 22:55:56;;;;;;;25.23;6.87;;;;;;;;;;8297623;28;20046;-80
2022/03/10 22:59:59;;;;;;;24.73;7.72;;;;;;;;;;8297439;28;20699;-81
2022/03/10 23:07:25;;;;;;;16.73;5.32;;;;;;;;;;8298396;28;20049;-80
2022/03/10 23:08:29;;;;;;;10.73;5.10;;;;;;;;;;8303798;28;20543;-81
2022/03/10 23:12:31;;;;;;;12.18;6.68;;;;;;;;;;8303265;28;20409;-80
2022/03/10 23:16:34;;;;;;;18.60;6.72;;;;;;;;;;8303023;28;20046;-80
2022/03/10 23:20:37;;;;;;;7.03;4.05;;;;;;;;;;8303841;28;20052;-80
2022/03/10 23:24:41;;;;;;;16.85;6.00;;;;;;;;;;8302429;28;20057;-80
2022/03/10 23:28:43;;;;;;;10.82;5.03;;;;;;;;;;8303611;28;20409;-80
2022/03/10 23:32:46;;;;;;;18.38;6.32;;;;;;;;;;8302800;28;20068;-80
2022/03/10 23:36:49;;;;;;;8.48;4.45;;;;;;;;;;8302685;28;20049;-81
2022/03/10 23:40:53;;;;;;;13.18;4.95;;;;;;;;;;8302206;28;20050;-81
2022/03/10 23:44:55;;;;;;;26.15;7.57;;;;;;;;;;8303982;28;20120;-79
2022/03/10 23:48:58;;;;;;;18.38;5.22;;;;;;;;;;8313800;28;20041;-79
2022/03/10 23:53:00;;;;;;;8.85;4.88;;;;;;;;;;8305750;28;20048;-80
2022/03/10 23:57:05;;;;;;;5.50;3.80;;;;;;;;;;8293327;28;20072;-78
